메인 페이지
METAR-TAF:

METAR-TAF

공항 :

우아리 부메디엔 공항

알제, 알제리

위도: 36-43N, 경도: 003-15E, 고도: 25m

현재 날씨관측

예보는 39분 전, 17:00시(UTC)에 발표되었습니다.
20kt
온도 17°C
습도 55%
기압 1018 hPa
시정 10km 이상
1500m 미만 상공 구름 및 적란운 없음

METAR: DAAG 041700Z 08020KT CAVOK 17/08 Q1018

시각: 18:39 (17:39 UTC)

예보

예보는 6 시간 39분 전, 11:00시(UTC)에 발표되었습니다.
예보 대상 시간: 04일 12시부터 05일 12시까지 (UTC)
14kt
시정 10km 이상
고도 2600ft 상공 구름 조금
확률 30% :
일시적
04일 14시부터 04일 16시까지 (UTC)
동북동15kt, 순간 최대 풍속 25kt
고도 2300ft 상공 구름 조금, 타워링 적운.
전환 중
04일 20시부터 04일 24시까지 (UTC)
여러 방향의 바람 2kt
전환 중
05일 08시부터 05일 11시까지 (UTC)
북동10kt

TAF: DAAG 041100Z 0412/0512 08014KT 9999 FEW026 PROB30 TEMPO 0414/0416 06015G25KT FEW023TCU BECMG 0420/0424 VRB02KT BECMG 0508/0511 04010KT

4,000개 이상의 공항 관측 자료 및 예보 (METAR 및 TAF 보고).

지도상에서 검색 가능한 기상관측소가 노란 점과 빨간 점으로 표시되어 있습니다.

기상관측소 명을 보려면 표시 위로 마우스를 이동하세요.

날씨 관측과 예보를 보려면 클릭하세요.

지도 변경 : 확대하려면 엑스 표시가 있는 녹색 버튼, 축소하려면 빼기 표시가 있는 녹색 버튼, 다음 페이지의 지도를 보려면 녹색 화살표를 클릭하세요.


METAR-TAF: